sensor_id;sensor_type;location;lat;lon;timestamp;P1;durP1;ratioP1;P2;durP2;ratioP2
11078;SDS011;5592;49.234;7.268;2022-12-07T00:01:14;10.07;;;7.53;;
11078;SDS011;5592;49.234;7.268;2022-12-07T00:03:43;11.10;;;6.80;;
11078;SDS011;5592;49.234;7.268;2022-12-07T00:06:11;14.20;;;7.67;;
11078;SDS011;5592;49.234;7.268;2022-12-07T00:08:38;11.83;;;7.73;;
11078;SDS011;5592;49.234;7.268;2022-12-07T00:11:04;12.50;;;8.30;;
11078;SDS011;5592;49.234;7.268;2022-12-07T00:13:31;13.10;;;8.63;;
11078;SDS011;5592;49.234;7.268;2022-12-07T00:16:01;10.73;;;7.37;;
11078;SDS011;5592;49.234;7.268;2022-12-07T00:18:34;12.87;;;7.47;;
11078;SDS011;5592;49.234;7.268;2022-12-07T00:21:01;13.60;;;7.77;;
11078;SDS011;5592;49.234;7.268;2022-12-07T00:23:31;13.50;;;7.90;;
11078;SDS011;5592;49.234;7.268;2022-12-07T00:26:03;12.83;;;7.60;;
11078;SDS011;5592;49.234;7.268;2022-12-07T00:28:29;12.07;;;7.53;;
11078;SDS011;5592;49.234;7.268;2022-12-07T00:31:02;13.60;;;8.63;;
11078;SDS011;5592;49.234;7.268;2022-12-07T00:33:28;12.47;;;7.70;;
11078;SDS011;5592;49.234;7.268;2022-12-07T00:35:57;13.97;;;7.87;;
11078;SDS011;5592;49.234;7.268;2022-12-07T00:38:24;14.00;;;8.20;;
11078;SDS011;5592;49.234;7.268;2022-12-07T00:40:56;11.57;;;7.87;;
11078;SDS011;5592;49.234;7.268;2022-12-07T00:43:23;12.00;;;7.67;;
11078;SDS011;5592;49.234;7.268;2022-12-07T00:45:48;12.10;;;7.80;;
11078;SDS011;5592;49.234;7.268;2022-12-07T00:48:14;19.27;;;7.83;;
11078;SDS011;5592;49.234;7.268;2022-12-07T00:50:39;12.67;;;7.67;;
11078;SDS011;5592;49.234;7.268;2022-12-07T00:53:05;11.57;;;7.80;;
11078;SDS011;5592;49.234;7.268;2022-12-07T00:55:34;15.30;;;7.47;;
11078;SDS011;5592;49.234;7.268;2022-12-07T00:58:01;16.20;;;7.97;;
11078;SDS011;5592;49.234;7.268;2022-12-07T01:00:27;13.00;;;7.37;;
11078;SDS011;5592;49.234;7.268;2022-12-07T01:02:53;14.30;;;8.13;;
11078;SDS011;5592;49.234;7.268;2022-12-07T01:05:19;12.30;;;7.70;;
11078;SDS011;5592;49.234;7.268;2022-12-07T01:07:44;13.20;;;8.30;;
11078;SDS011;5592;49.234;7.268;2022-12-07T01:10:11;14.87;;;8.93;;
11078;SDS011;5592;49.234;7.268;2022-12-07T01:12:38;14.47;;;8.17;;
11078;SDS011;5592;49.234;7.268;2022-12-07T01:15:04;11.97;;;7.77;;
11078;SDS011;5592;49.234;7.268;2022-12-07T01:17:30;13.70;;;8.50;;
11078;SDS011;5592;49.234;7.268;2022-12-07T01:19:55;14.70;;;9.10;;
11078;SDS011;5592;49.234;7.268;2022-12-07T01:22:21;11.97;;;8.13;;
11078;SDS011;5592;49.234;7.268;2022-12-07T01:24:46;14.43;;;8.20;;
11078;SDS011;5592;49.234;7.268;2022-12-07T01:27:13;12.17;;;8.07;;
11078;SDS011;5592;49.234;7.268;2022-12-07T01:29:39;18.63;;;7.87;;
11078;SDS011;5592;49.234;7.268;2022-12-07T01:32:04;13.53;;;8.10;;
11078;SDS011;5592;49.234;7.268;2022-12-07T01:34:30;12.70;;;8.33;;
11078;SDS011;5592;49.234;7.268;2022-12-07T01:36:56;10.73;;;6.73;;
11078;SDS011;5592;49.234;7.268;2022-12-07T01:39:22;20.80;;;9.30;;
11078;SDS011;5592;49.234;7.268;2022-12-07T01:41:48;13.83;;;8.37;;
11078;SDS011;5592;49.234;7.268;2022-12-07T01:44:27;13.63;;;8.50;;
11078;SDS011;5592;49.234;7.268;2022-12-07T01:47:02;15.20;;;7.93;;
11078;SDS011;5592;49.234;7.268;2022-12-07T01:49:33;22.03;;;8.57;;
11078;SDS011;5592;49.234;7.268;2022-12-07T01:52:15;12.00;;;7.17;;
11078;SDS011;5592;49.234;7.268;2022-12-07T01:54:53;16.40;;;8.83;;
11078;SDS011;5592;49.234;7.268;2022-12-07T01:57:21;31.97;;;11.20;;
11078;SDS011;5592;49.234;7.268;2022-12-07T01:59:48;14.07;;;7.60;;
11078;SDS011;5592;49.234;7.268;2022-12-07T02:02:35;11.77;;;7.83;;
11078;SDS011;5592;49.234;7.268;2022-12-07T02:05:06;13.37;;;8.57;;
11078;SDS011;5592;49.234;7.268;2022-12-07T02:07:32;13.50;;;8.57;;
11078;SDS011;5592;49.234;7.268;2022-12-07T02:12:40;12.33;;;7.07;;
11078;SDS011;5592;49.234;7.268;2022-12-07T02:15:06;13.80;;;8.20;;
11078;SDS011;5592;49.234;7.268;2022-12-07T02:17:36;12.90;;;7.83;;
11078;SDS011;5592;49.234;7.268;2022-12-07T02:22:47;13.00;;;7.00;;
11078;SDS011;5592;49.234;7.268;2022-12-07T02:28:13;13.90;;;9.10;;
11078;SDS011;5592;49.234;7.268;2022-12-07T02:30:58;16.33;;;8.57;;
11078;SDS011;5592;49.234;7.268;2022-12-07T02:33:46;17.40;;;9.17;;
11078;SDS011;5592;49.234;7.268;2022-12-07T02:36:25;15.20;;;9.03;;
11078;SDS011;5592;49.234;7.268;2022-12-07T02:39:00;13.90;;;8.23;;
11078;SDS011;5592;49.234;7.268;2022-12-07T02:41:33;13.90;;;8.60;;
11078;SDS011;5592;49.234;7.268;2022-12-07T02:44:06;13.23;;;8.40;;
11078;SDS011;5592;49.234;7.268;2022-12-07T02:46:42;19.13;;;8.70;;
11078;SDS011;5592;49.234;7.268;2022-12-07T02:49:28;19.20;;;9.43;;
11078;SDS011;5592;49.234;7.268;2022-12-07T02:51:55;15.03;;;8.83;;
11078;SDS011;5592;49.234;7.268;2022-12-07T02:54:21;20.43;;;9.50;;
11078;SDS011;5592;49.234;7.268;2022-12-07T03:00:00;15.63;;;8.70;;
11078;SDS011;5592;49.234;7.268;2022-12-07T03:08:12;14.00;;;7.67;;
11078;SDS011;5592;49.234;7.268;2022-12-07T03:11:08;14.13;;;8.80;;
11078;SDS011;5592;49.234;7.268;2022-12-07T03:16:14;13.20;;;8.00;;
11078;SDS011;5592;49.234;7.268;2022-12-07T03:18:46;16.00;;;8.47;;
11078;SDS011;5592;49.234;7.268;2022-12-07T03:21:20;12.83;;;8.23;;
11078;SDS011;5592;49.234;7.268;2022-12-07T03:23:51;13.10;;;8.73;;
11078;SDS011;5592;49.234;7.268;2022-12-07T03:26:24;15.60;;;8.30;;
11078;SDS011;5592;49.234;7.268;2022-12-07T03:29:00;11.00;;;7.50;;
11078;SDS011;5592;49.234;7.268;2022-12-07T03:31:33;13.43;;;8.60;;
11078;SDS011;5592;49.234;7.268;2022-12-07T03:34:38;16.83;;;10.10;;
11078;SDS011;5592;49.234;7.268;2022-12-07T03:37:02;18.33;;;9.53;;
11078;SDS011;5592;49.234;7.268;2022-12-07T03:39:49;16.80;;;8.20;;
11078;SDS011;5592;49.234;7.268;2022-12-07T03:42:39;16.67;;;9.80;;
11078;SDS011;5592;49.234;7.268;2022-12-07T03:45:06;18.70;;;9.23;;
11078;SDS011;5592;49.234;7.268;2022-12-07T03:47:33;17.97;;;9.50;;
11078;SDS011;5592;49.234;7.268;2022-12-07T03:50:11;14.60;;;8.77;;
11078;SDS011;5592;49.234;7.268;2022-12-07T03:53:07;17.40;;;8.70;;
11078;SDS011;5592;49.234;7.268;2022-12-07T03:55:35;15.27;;;9.10;;
11078;SDS011;5592;49.234;7.268;2022-12-07T03:58:05;15.43;;;8.60;;
11078;SDS011;5592;49.234;7.268;2022-12-07T04:00:35;15.33;;;8.83;;
11078;SDS011;5592;49.234;7.268;2022-12-07T04:03:01;16.63;;;9.57;;
11078;SDS011;5592;49.234;7.268;2022-12-07T04:05:27;14.80;;;8.80;;
11078;SDS011;5592;49.234;7.268;2022-12-07T04:07:53;14.90;;;8.77;;
11078;SDS011;5592;49.234;7.268;2022-12-07T04:10:19;13.87;;;8.50;;
11078;SDS011;5592;49.234;7.268;2022-12-07T04:12:45;17.13;;;8.83;;
11078;SDS011;5592;49.234;7.268;2022-12-07T04:15:10;16.23;;;8.60;;
11078;SDS011;5592;49.234;7.268;2022-12-07T04:17:36;15.10;;;7.67;;
11078;SDS011;5592;49.234;7.268;2022-12-07T04:20:02;12.80;;;8.70;;
11078;SDS011;5592;49.234;7.268;2022-12-07T04:22:29;15.40;;;8.00;;
11078;SDS011;5592;49.234;7.268;2022-12-07T04:24:55;13.83;;;8.77;;
11078;SDS011;5592;49.234;7.268;2022-12-07T04:27:20;18.10;;;10.17;;
11078;SDS011;5592;49.234;7.268;2022-12-07T04:29:46;14.30;;;8.50;;
11078;SDS011;5592;49.234;7.268;2022-12-07T04:32:11;30.13;;;9.63;;
11078;SDS011;5592;49.234;7.268;2022-12-07T04:34:37;17.10;;;9.20;;
11078;SDS011;5592;49.234;7.268;2022-12-07T04:37:05;12.77;;;8.10;;
11078;SDS011;5592;49.234;7.268;2022-12-07T04:39:31;12.60;;;7.33;;
11078;SDS011;5592;49.234;7.268;2022-12-07T04:41:57;15.73;;;8.80;;
11078;SDS011;5592;49.234;7.268;2022-12-07T04:44:24;14.47;;;8.53;;
11078;SDS011;5592;49.234;7.268;2022-12-07T04:46:51;15.33;;;8.07;;
11078;SDS011;5592;49.234;7.268;2022-12-07T04:49:17;16.63;;;8.60;;
11078;SDS011;5592;49.234;7.268;2022-12-07T04:51:44;16.27;;;8.57;;
11078;SDS011;5592;49.234;7.268;2022-12-07T04:54:10;14.50;;;7.57;;
11078;SDS011;5592;49.234;7.268;2022-12-07T04:56:37;15.33;;;7.90;;
11078;SDS011;5592;49.234;7.268;2022-12-07T04:59:04;15.93;;;8.03;;
11078;SDS011;5592;49.234;7.268;2022-12-07T05:01:29;15.57;;;8.23;;
11078;SDS011;5592;49.234;7.268;2022-12-07T05:03:56;13.03;;;7.60;;
11078;SDS011;5592;49.234;7.268;2022-12-07T05:06:21;10.97;;;6.90;;
11078;SDS011;5592;49.234;7.268;2022-12-07T05:08:47;10.33;;;6.97;;
11078;SDS011;5592;49.234;7.268;2022-12-07T05:11:13;11.80;;;7.70;;
11078;SDS011;5592;49.234;7.268;2022-12-07T05:13:59;12.43;;;7.17;;
11078;SDS011;5592;49.234;7.268;2022-12-07T05:16:26;14.27;;;6.90;;
11078;SDS011;5592;49.234;7.268;2022-12-07T05:18:51;14.63;;;7.40;;
11078;SDS011;5592;49.234;7.268;2022-12-07T05:21:20;13.30;;;7.43;;
11078;SDS011;5592;49.234;7.268;2022-12-07T05:23:46;15.83;;;8.33;;
11078;SDS011;5592;49.234;7.268;2022-12-07T05:26:11;13.63;;;7.20;;
11078;SDS011;5592;49.234;7.268;2022-12-07T05:28:37;13.20;;;8.30;;
11078;SDS011;5592;49.234;7.268;2022-12-07T05:31:03;11.50;;;7.50;;
11078;SDS011;5592;49.234;7.268;2022-12-07T05:33:28;11.07;;;7.00;;
11078;SDS011;5592;49.234;7.268;2022-12-07T05:35:54;15.07;;;7.50;;
11078;SDS011;5592;49.234;7.268;2022-12-07T05:38:20;10.80;;;6.63;;
11078;SDS011;5592;49.234;7.268;2022-12-07T05:40:45;13.30;;;7.20;;
11078;SDS011;5592;49.234;7.268;2022-12-07T05:43:11;25.37;;;7.80;;
11078;SDS011;5592;49.234;7.268;2022-12-07T05:45:36;16.57;;;9.00;;
11078;SDS011;5592;49.234;7.268;2022-12-07T05:48:02;14.30;;;7.20;;
11078;SDS011;5592;49.234;7.268;2022-12-07T05:50:28;11.90;;;7.50;;
11078;SDS011;5592;49.234;7.268;2022-12-07T05:52:54;14.27;;;7.40;;
11078;SDS011;5592;49.234;7.268;2022-12-07T05:55:19;11.17;;;6.87;;
11078;SDS011;5592;49.234;7.268;2022-12-07T05:57:48;16.30;;;8.17;;
11078;SDS011;5592;49.234;7.268;2022-12-07T06:00:34;17.23;;;9.43;;
11078;SDS011;5592;49.234;7.268;2022-12-07T06:03:00;11.50;;;7.50;;
11078;SDS011;5592;49.234;7.268;2022-12-07T06:05:26;18.00;;;8.93;;
11078;SDS011;5592;49.234;7.268;2022-12-07T06:07:51;18.93;;;9.30;;
11078;SDS011;5592;49.234;7.268;2022-12-07T06:10:17;14.73;;;8.43;;
11078;SDS011;5592;49.234;7.268;2022-12-07T06:12:42;11.77;;;8.00;;
11078;SDS011;5592;49.234;7.268;2022-12-07T06:15:10;14.70;;;9.20;;
11078;SDS011;5592;49.234;7.268;2022-12-07T06:17:38;17.60;;;9.40;;
11078;SDS011;5592;49.234;7.268;2022-12-07T06:20:04;15.00;;;8.90;;
11078;SDS011;5592;49.234;7.268;2022-12-07T06:22:30;17.23;;;9.17;;
11078;SDS011;5592;49.234;7.268;2022-12-07T06:24:56;15.70;;;9.30;;
11078;SDS011;5592;49.234;7.268;2022-12-07T06:27:21;12.30;;;8.20;;
11078;SDS011;5592;49.234;7.268;2022-12-07T06:29:47;19.67;;;9.60;;
11078;SDS011;5592;49.234;7.268;2022-12-07T06:32:12;17.57;;;8.73;;
11078;SDS011;5592;49.234;7.268;2022-12-07T06:34:38;14.73;;;9.20;;
11078;SDS011;5592;49.234;7.268;2022-12-07T06:37:04;18.23;;;9.47;;
11078;SDS011;5592;49.234;7.268;2022-12-07T06:39:30;14.43;;;9.50;;
11078;SDS011;5592;49.234;7.268;2022-12-07T06:41:56;12.43;;;8.27;;
11078;SDS011;5592;49.234;7.268;2022-12-07T06:44:22;17.50;;;8.90;;
11078;SDS011;5592;49.234;7.268;2022-12-07T06:46:48;14.80;;;8.80;;
11078;SDS011;5592;49.234;7.268;2022-12-07T06:49:15;14.80;;;8.53;;
11078;SDS011;5592;49.234;7.268;2022-12-07T06:51:41;14.93;;;9.37;;
11078;SDS011;5592;49.234;7.268;2022-12-07T06:54:11;16.47;;;9.60;;
11078;SDS011;5592;49.234;7.268;2022-12-07T06:56:40;18.27;;;9.40;;
11078;SDS011;5592;49.234;7.268;2022-12-07T06:59:07;14.10;;;8.33;;
11078;SDS011;5592;49.234;7.268;2022-12-07T07:01:34;15.37;;;9.00;;
11078;SDS011;5592;49.234;7.268;2022-12-07T07:04:00;16.47;;;9.37;;
11078;SDS011;5592;49.234;7.268;2022-12-07T07:06:26;15.93;;;8.50;;
11078;SDS011;5592;49.234;7.268;2022-12-07T07:08:52;12.00;;;8.40;;
11078;SDS011;5592;49.234;7.268;2022-12-07T07:11:17;15.67;;;8.83;;
11078;SDS011;5592;49.234;7.268;2022-12-07T07:13:44;17.63;;;9.63;;
11078;SDS011;5592;49.234;7.268;2022-12-07T07:16:10;15.57;;;9.30;;
11078;SDS011;5592;49.234;7.268;2022-12-07T07:18:38;15.70;;;8.60;;
11078;SDS011;5592;49.234;7.268;2022-12-07T07:21:04;13.30;;;8.27;;
11078;SDS011;5592;49.234;7.268;2022-12-07T07:23:30;18.20;;;9.63;;
11078;SDS011;5592;49.234;7.268;2022-12-07T07:25:55;17.00;;;9.80;;
11078;SDS011;5592;49.234;7.268;2022-12-07T07:28:21;17.80;;;10.10;;
11078;SDS011;5592;49.234;7.268;2022-12-07T07:30:47;15.70;;;10.33;;
11078;SDS011;5592;49.234;7.268;2022-12-07T07:33:13;14.40;;;9.27;;
11078;SDS011;5592;49.234;7.268;2022-12-07T07:35:39;15.53;;;9.60;;
11078;SDS011;5592;49.234;7.268;2022-12-07T07:38:04;13.47;;;8.63;;
11078;SDS011;5592;49.234;7.268;2022-12-07T07:40:33;16.17;;;9.03;;
11078;SDS011;5592;49.234;7.268;2022-12-07T07:42:59;16.03;;;8.93;;
11078;SDS011;5592;49.234;7.268;2022-12-07T07:45:25;12.93;;;9.57;;
11078;SDS011;5592;49.234;7.268;2022-12-07T07:47:52;15.97;;;8.97;;
11078;SDS011;5592;49.234;7.268;2022-12-07T07:50:18;17.47;;;8.90;;
11078;SDS011;5592;49.234;7.268;2022-12-07T07:52:44;19.30;;;10.30;;
11078;SDS011;5592;49.234;7.268;2022-12-07T07:55:10;13.57;;;8.37;;
11078;SDS011;5592;49.234;7.268;2022-12-07T07:57:36;15.47;;;8.90;;
11078;SDS011;5592;49.234;7.268;2022-12-07T08:00:03;13.87;;;8.30;;
11078;SDS011;5592;49.234;7.268;2022-12-07T08:02:31;16.50;;;10.00;;
11078;SDS011;5592;49.234;7.268;2022-12-07T08:04:57;13.83;;;8.50;;
11078;SDS011;5592;49.234;7.268;2022-12-07T08:07:22;21.20;;;9.77;;
11078;SDS011;5592;49.234;7.268;2022-12-07T08:09:48;16.73;;;9.10;;
11078;SDS011;5592;49.234;7.268;2022-12-07T08:12:13;13.87;;;9.37;;
11078;SDS011;5592;49.234;7.268;2022-12-07T08:14:39;19.30;;;10.23;;
11078;SDS011;5592;49.234;7.268;2022-12-07T08:17:06;15.60;;;9.67;;
11078;SDS011;5592;49.234;7.268;2022-12-07T08:19:32;18.60;;;11.20;;
11078;SDS011;5592;49.234;7.268;2022-12-07T08:21:58;18.67;;;11.00;;
11078;SDS011;5592;49.234;7.268;2022-12-07T08:24:23;19.10;;;10.23;;
11078;SDS011;5592;49.234;7.268;2022-12-07T08:26:51;17.77;;;9.97;;
11078;SDS011;5592;49.234;7.268;2022-12-07T08:29:17;16.57;;;9.93;;
11078;SDS011;5592;49.234;7.268;2022-12-07T08:31:43;16.00;;;10.00;;
11078;SDS011;5592;49.234;7.268;2022-12-07T08:34:10;20.00;;;11.10;;
11078;SDS011;5592;49.234;7.268;2022-12-07T08:36:36;18.50;;;10.30;;
11078;SDS011;5592;49.234;7.268;2022-12-07T08:39:02;20.70;;;10.97;;
11078;SDS011;5592;49.234;7.268;2022-12-07T08:41:28;18.23;;;10.77;;
11078;SDS011;5592;49.234;7.268;2022-12-07T08:43:53;20.80;;;11.70;;
11078;SDS011;5592;49.234;7.268;2022-12-07T08:46:20;19.10;;;11.17;;
11078;SDS011;5592;49.234;7.268;2022-12-07T08:51:36;14.63;;;9.20;;
11078;SDS011;5592;49.234;7.268;2022-12-07T08:54:04;18.07;;;10.50;;
11078;SDS011;5592;49.234;7.268;2022-12-07T08:56:32;21.87;;;11.00;;
11078;SDS011;5592;49.234;7.268;2022-12-07T08:58:59;17.47;;;10.93;;
11078;SDS011;5592;49.234;7.268;2022-12-07T09:01:24;18.57;;;10.90;;
11078;SDS011;5592;49.234;7.268;2022-12-07T09:03:50;15.30;;;10.27;;
11078;SDS011;5592;49.234;7.268;2022-12-07T09:06:16;17.90;;;11.13;;
11078;SDS011;5592;49.234;7.268;2022-12-07T09:08:42;18.90;;;11.57;;
11078;SDS011;5592;49.234;7.268;2022-12-07T09:11:11;20.03;;;11.20;;
11078;SDS011;5592;49.234;7.268;2022-12-07T09:13:36;22.20;;;12.23;;
11078;SDS011;5592;49.234;7.268;2022-12-07T09:16:04;19.80;;;11.90;;
11078;SDS011;5592;49.234;7.268;2022-12-07T09:18:31;26.93;;;13.10;;
11078;SDS011;5592;49.234;7.268;2022-12-07T09:20:57;20.33;;;12.00;;
11078;SDS011;5592;49.234;7.268;2022-12-07T09:23:22;23.87;;;11.77;;
11078;SDS011;5592;49.234;7.268;2022-12-07T09:25:48;19.50;;;11.83;;
11078;SDS011;5592;49.234;7.268;2022-12-07T09:28:13;16.40;;;11.10;;
11078;SDS011;5592;49.234;7.268;2022-12-07T09:30:44;26.27;;;12.07;;
11078;SDS011;5592;49.234;7.268;2022-12-07T09:33:11;23.30;;;12.83;;
11078;SDS011;5592;49.234;7.268;2022-12-07T09:35:36;20.77;;;12.60;;
11078;SDS011;5592;49.234;7.268;2022-12-07T09:38:02;23.53;;;12.20;;
11078;SDS011;5592;49.234;7.268;2022-12-07T09:40:28;19.87;;;12.07;;
11078;SDS011;5592;49.234;7.268;2022-12-07T09:42:53;26.33;;;11.80;;
11078;SDS011;5592;49.234;7.268;2022-12-07T09:45:22;18.80;;;11.90;;
11078;SDS011;5592;49.234;7.268;2022-12-07T09:47:52;20.77;;;12.00;;
11078;SDS011;5592;49.234;7.268;2022-12-07T09:50:23;27.13;;;13.73;;
11078;SDS011;5592;49.234;7.268;2022-12-07T09:52:51;19.50;;;12.00;;
11078;SDS011;5592;49.234;7.268;2022-12-07T09:55:27;21.80;;;12.10;;
11078;SDS011;5592;49.234;7.268;2022-12-07T09:57:54;24.10;;;12.90;;
11078;SDS011;5592;49.234;7.268;2022-12-07T10:00:22;24.33;;;12.70;;
11078;SDS011;5592;49.234;7.268;2022-12-07T10:05:24;22.97;;;12.63;;
11078;SDS011;5592;49.234;7.268;2022-12-07T10:07:51;25.10;;;13.03;;
11078;SDS011;5592;49.234;7.268;2022-12-07T10:10:24;24.90;;;13.30;;
11078;SDS011;5592;49.234;7.268;2022-12-07T10:13:02;21.73;;;13.90;;
11078;SDS011;5592;49.234;7.268;2022-12-07T10:18:31;24.53;;;13.13;;
11078;SDS011;5592;49.234;7.268;2022-12-07T10:21:08;25.90;;;13.10;;
11078;SDS011;5592;49.234;7.268;2022-12-07T10:24:01;22.97;;;13.97;;
11078;SDS011;5592;49.234;7.268;2022-12-07T10:26:49;23.40;;;13.20;;
11078;SDS011;5592;49.234;7.268;2022-12-07T10:29:30;21.83;;;12.03;;
11078;SDS011;5592;49.234;7.268;2022-12-07T10:32:03;28.83;;;12.60;;
11078;SDS011;5592;49.234;7.268;2022-12-07T10:34:36;19.47;;;11.80;;
11078;SDS011;5592;49.234;7.268;2022-12-07T10:37:23;21.10;;;13.00;;
11078;SDS011;5592;49.234;7.268;2022-12-07T10:39:53;20.50;;;12.50;;
11078;SDS011;5592;49.234;7.268;2022-12-07T10:42:27;15.73;;;10.50;;
11078;SDS011;5592;49.234;7.268;2022-12-07T10:47:51;22.07;;;10.47;;
11078;SDS011;5592;49.234;7.268;2022-12-07T10:56:11;16.20;;;9.57;;
11078;SDS011;5592;49.234;7.268;2022-12-07T11:15:26;16.87;;;9.27;;
11078;SDS011;5592;49.234;7.268;2022-12-07T11:20:53;19.70;;;10.17;;
11078;SDS011;5592;49.234;7.268;2022-12-07T11:27:07;17.53;;;9.33;;
11078;SDS011;5592;49.234;7.268;2022-12-07T11:32:39;14.90;;;9.30;;
11078;SDS011;5592;49.234;7.268;2022-12-07T11:37:49;15.43;;;8.97;;
11078;SDS011;5592;49.234;7.268;2022-12-07T11:40:22;16.70;;;10.07;;
11078;SDS011;5592;49.234;7.268;2022-12-07T11:45:54;13.83;;;8.60;;
11078;SDS011;5592;49.234;7.268;2022-12-07T11:48:24;17.03;;;9.83;;
11078;SDS011;5592;49.234;7.268;2022-12-07T11:50:56;14.50;;;8.90;;
11078;SDS011;5592;49.234;7.268;2022-12-07T11:53:25;15.37;;;9.77;;
11078;SDS011;5592;49.234;7.268;2022-12-07T11:56:07;15.23;;;8.73;;
11078;SDS011;5592;49.234;7.268;2022-12-07T12:03:52;15.43;;;8.60;;
11078;SDS011;5592;49.234;7.268;2022-12-07T12:06:37;11.70;;;7.00;;
11078;SDS011;5592;49.234;7.268;2022-12-07T12:12:21;6.93;;;4.80;;
11078;SDS011;5592;49.234;7.268;2022-12-07T12:15:13;6.20;;;4.00;;
11078;SDS011;5592;49.234;7.268;2022-12-07T12:20:31;8.57;;;3.80;;
11078;SDS011;5592;49.234;7.268;2022-12-07T12:23:27;7.83;;;4.13;;
11078;SDS011;5592;49.234;7.268;2022-12-07T12:26:20;9.47;;;4.40;;
11078;SDS011;5592;49.234;7.268;2022-12-07T12:28:58;6.10;;;4.10;;
11078;SDS011;5592;49.234;7.268;2022-12-07T12:31:33;6.60;;;4.73;;
11078;SDS011;5592;49.234;7.268;2022-12-07T12:34:10;8.20;;;4.53;;
11078;SDS011;5592;49.234;7.268;2022-12-07T12:36:55;7.50;;;5.10;;
11078;SDS011;5592;49.234;7.268;2022-12-07T12:39:21;9.93;;;5.10;;
11078;SDS011;5592;49.234;7.268;2022-12-07T12:54:19;8.10;;;4.47;;
11078;SDS011;5592;49.234;7.268;2022-12-07T13:15:44;6.37;;;3.90;;
11078;SDS011;5592;49.234;7.268;2022-12-07T13:28:37;9.27;;;5.53;;
11078;SDS011;5592;49.234;7.268;2022-12-07T13:36:43;8.63;;;5.43;;
11078;SDS011;5592;49.234;7.268;2022-12-07T13:39:17;6.37;;;5.07;;
11078;SDS011;5592;49.234;7.268;2022-12-07T13:42:08;7.10;;;4.50;;
11078;SDS011;5592;49.234;7.268;2022-12-07T13:44:43;8.17;;;5.43;;
11078;SDS011;5592;49.234;7.268;2022-12-07T13:47:13;9.90;;;4.67;;
11078;SDS011;5592;49.234;7.268;2022-12-07T13:49:47;14.40;;;5.63;;
11078;SDS011;5592;49.234;7.268;2022-12-07T13:52:18;9.30;;;5.03;;
11078;SDS011;5592;49.234;7.268;2022-12-07T13:54:55;6.97;;;5.00;;
11078;SDS011;5592;49.234;7.268;2022-12-07T13:57:44;11.43;;;5.93;;
11078;SDS011;5592;49.234;7.268;2022-12-07T14:00:15;9.53;;;5.13;;
11078;SDS011;5592;49.234;7.268;2022-12-07T14:02:57;11.90;;;4.63;;
11078;SDS011;5592;49.234;7.268;2022-12-07T14:05:26;6.00;;;4.20;;
11078;SDS011;5592;49.234;7.268;2022-12-07T14:10:30;7.43;;;4.40;;
11078;SDS011;5592;49.234;7.268;2022-12-07T14:15:50;6.80;;;4.60;;
11078;SDS011;5592;49.234;7.268;2022-12-07T14:23:35;8.83;;;4.97;;
11078;SDS011;5592;49.234;7.268;2022-12-07T14:26:06;6.50;;;4.90;;
11078;SDS011;5592;49.234;7.268;2022-12-07T14:28:36;6.93;;;5.33;;
11078;SDS011;5592;49.234;7.268;2022-12-07T14:31:03;7.10;;;4.63;;
11078;SDS011;5592;49.234;7.268;2022-12-07T14:33:36;8.63;;;5.40;;
11078;SDS011;5592;49.234;7.268;2022-12-07T14:36:03;9.83;;;5.63;;
11078;SDS011;5592;49.234;7.268;2022-12-07T14:38:28;8.50;;;6.03;;
11078;SDS011;5592;49.234;7.268;2022-12-07T14:40:54;9.40;;;6.03;;
11078;SDS011;5592;49.234;7.268;2022-12-07T14:43:40;8.63;;;5.30;;
11078;SDS011;5592;49.234;7.268;2022-12-07T14:46:08;10.57;;;5.73;;
11078;SDS011;5592;49.234;7.268;2022-12-07T14:48:34;10.50;;;5.37;;
11078;SDS011;5592;49.234;7.268;2022-12-07T14:51:00;9.70;;;5.43;;
11078;SDS011;5592;49.234;7.268;2022-12-07T14:53:30;10.30;;;6.00;;
11078;SDS011;5592;49.234;7.268;2022-12-07T14:56:00;11.03;;;6.37;;
11078;SDS011;5592;49.234;7.268;2022-12-07T14:58:26;8.87;;;5.83;;
11078;SDS011;5592;49.234;7.268;2022-12-07T15:00:52;10.33;;;5.37;;
11078;SDS011;5592;49.234;7.268;2022-12-07T15:03:18;10.60;;;5.47;;
11078;SDS011;5592;49.234;7.268;2022-12-07T15:05:43;7.33;;;5.00;;
11078;SDS011;5592;49.234;7.268;2022-12-07T15:08:10;12.10;;;6.73;;
11078;SDS011;5592;49.234;7.268;2022-12-07T15:10:37;11.60;;;6.40;;
11078;SDS011;5592;49.234;7.268;2022-12-07T15:13:03;10.40;;;6.50;;
11078;SDS011;5592;49.234;7.268;2022-12-07T15:15:49;11.43;;;5.77;;
11078;SDS011;5592;49.234;7.268;2022-12-07T15:18:16;9.30;;;5.33;;
11078;SDS011;5592;49.234;7.268;2022-12-07T15:20:42;8.70;;;5.17;;
11078;SDS011;5592;49.234;7.268;2022-12-07T15:23:09;10.13;;;6.00;;
11078;SDS011;5592;49.234;7.268;2022-12-07T15:25:35;13.57;;;5.63;;
11078;SDS011;5592;49.234;7.268;2022-12-07T15:28:01;9.37;;;5.90;;
11078;SDS011;5592;49.234;7.268;2022-12-07T15:30:27;6.70;;;5.30;;
11078;SDS011;5592;49.234;7.268;2022-12-07T15:32:53;8.93;;;5.63;;
11078;SDS011;5592;49.234;7.268;2022-12-07T15:35:19;7.30;;;4.97;;
11078;SDS011;5592;49.234;7.268;2022-12-07T15:37:46;8.17;;;5.70;;
11078;SDS011;5592;49.234;7.268;2022-12-07T15:40:12;12.33;;;5.17;;
11078;SDS011;5592;49.234;7.268;2022-12-07T15:42:38;9.30;;;5.43;;
11078;SDS011;5592;49.234;7.268;2022-12-07T15:45:04;9.37;;;5.70;;
11078;SDS011;5592;49.234;7.268;2022-12-07T15:47:33;8.10;;;5.00;;
11078;SDS011;5592;49.234;7.268;2022-12-07T15:50:02;9.10;;;5.10;;
11078;SDS011;5592;49.234;7.268;2022-12-07T15:52:29;8.13;;;5.07;;
11078;SDS011;5592;49.234;7.268;2022-12-07T15:54:55;9.20;;;5.20;;
11078;SDS011;5592;49.234;7.268;2022-12-07T15:57:20;6.43;;;4.67;;
11078;SDS011;5592;49.234;7.268;2022-12-07T15:59:46;8.60;;;5.53;;
11078;SDS011;5592;49.234;7.268;2022-12-07T16:02:15;8.27;;;4.80;;
11078;SDS011;5592;49.234;7.268;2022-12-07T16:04:40;8.00;;;5.60;;
11078;SDS011;5592;49.234;7.268;2022-12-07T16:07:06;5.70;;;4.23;;
11078;SDS011;5592;49.234;7.268;2022-12-07T16:09:31;10.37;;;5.10;;
11078;SDS011;5592;49.234;7.268;2022-12-07T16:11:57;6.77;;;4.70;;
11078;SDS011;5592;49.234;7.268;2022-12-07T16:14:25;9.63;;;4.70;;
11078;SDS011;5592;49.234;7.268;2022-12-07T16:16:51;8.00;;;4.70;;
11078;SDS011;5592;49.234;7.268;2022-12-07T16:19:17;10.03;;;4.77;;
11078;SDS011;5592;49.234;7.268;2022-12-07T16:21:45;9.60;;;4.83;;
11078;SDS011;5592;49.234;7.268;2022-12-07T16:24:11;5.97;;;4.57;;
11078;SDS011;5592;49.234;7.268;2022-12-07T16:26:39;8.00;;;4.50;;
11078;SDS011;5592;49.234;7.268;2022-12-07T16:29:07;8.30;;;5.60;;
11078;SDS011;5592;49.234;7.268;2022-12-07T16:31:36;10.10;;;5.67;;
11078;SDS011;5592;49.234;7.268;2022-12-07T16:34:03;8.00;;;4.63;;
11078;SDS011;5592;49.234;7.268;2022-12-07T16:36:32;9.17;;;5.53;;
11078;SDS011;5592;49.234;7.268;2022-12-07T16:38:59;8.53;;;5.90;;
11078;SDS011;5592;49.234;7.268;2022-12-07T16:41:26;12.47;;;6.03;;
11078;SDS011;5592;49.234;7.268;2022-12-07T16:43:54;10.13;;;6.00;;
11078;SDS011;5592;49.234;7.268;2022-12-07T16:46:23;12.37;;;7.00;;
11078;SDS011;5592;49.234;7.268;2022-12-07T16:48:48;11.70;;;7.03;;
11078;SDS011;5592;49.234;7.268;2022-12-07T16:51:17;11.27;;;7.10;;
11078;SDS011;5592;49.234;7.268;2022-12-07T16:53:43;15.70;;;7.10;;
11078;SDS011;5592;49.234;7.268;2022-12-07T16:56:09;14.40;;;7.20;;
11078;SDS011;5592;49.234;7.268;2022-12-07T16:58:41;17.33;;;8.93;;
11078;SDS011;5592;49.234;7.268;2022-12-07T17:01:08;16.73;;;8.80;;
11078;SDS011;5592;49.234;7.268;2022-12-07T17:03:36;15.20;;;8.10;;
11078;SDS011;5592;49.234;7.268;2022-12-07T17:06:02;13.37;;;8.80;;
11078;SDS011;5592;49.234;7.268;2022-12-07T17:08:28;14.77;;;7.80;;
11078;SDS011;5592;49.234;7.268;2022-12-07T17:10:54;14.03;;;8.10;;
11078;SDS011;5592;49.234;7.268;2022-12-07T17:13:21;18.20;;;8.27;;
11078;SDS011;5592;49.234;7.268;2022-12-07T17:16:05;15.30;;;9.17;;
11078;SDS011;5592;49.234;7.268;2022-12-07T17:18:32;16.80;;;8.60;;